Time;durP1;ratioP1;P1;durP2;ratioP2;P2;SDS_P1;SDS_P2;PMS_P1;PMS_P2;Temp;Humidity;BMP_temperature;BMP_pressure;BME280_temperature;BME280_humidity;BME280_pressure;Samples;Min_cycle;Max_cycle;Signal;HPM_P1;HPM_P2
2022/10/19 00:00:26;;;;;;;16.38;6.95;;;18.50;99.90;;;;;;5076043;28;20016;-76
2022/10/19 00:02:51;;;;;;;13.68;6.82;;;18.50;99.90;;;;;;5075845;28;20044;-75
2022/10/19 00:05:17;;;;;;;16.27;6.78;;;18.50;99.90;;;;;;5075398;28;20044;-75
2022/10/19 00:07:43;;;;;;;16.38;6.97;;;18.50;99.90;;;;;;5057654;28;20032;-76
2022/10/19 00:10:09;;;;;;;13.07;7.07;;;18.50;99.90;;;;;;5075690;28;20023;-75
2022/10/19 00:12:35;;;;;;;13.88;6.80;;;18.50;99.90;;;;;;5075757;28;20412;-76
2022/10/19 00:15:01;;;;;;;15.18;6.82;;;18.50;99.90;;;;;;5057567;28;20032;-75
2022/10/19 00:17:26;;;;;;;14.95;6.72;;;18.50;99.90;;;;;;5075563;28;20103;-76
2022/10/19 00:19:52;;;;;;;16.05;6.47;;;18.50;99.90;;;;;;5075510;28;20025;-75
2022/10/19 00:22:18;;;;;;;13.18;6.88;;;18.50;99.90;;;;;;5075485;28;20029;-77
2022/10/19 00:24:43;;;;;;;12.85;6.47;;;18.50;99.90;;;;;;5075540;28;20443;-75
2022/10/19 00:27:09;;;;;;;15.57;6.60;;;18.50;99.90;;;;;;5075276;28;20020;-75
2022/10/19 00:29:35;;;;;;;16.02;6.95;;;18.50;99.90;;;;;;5075568;28;20386;-76
2022/10/19 00:32:01;;;;;;;13.70;6.93;;;18.50;99.90;;;;;;5075262;28;20025;-77
2022/10/19 00:34:26;;;;;;;13.13;6.40;;;18.40;99.90;;;;;;5075310;28;20025;-75
2022/10/19 00:36:52;;;;;;;15.55;6.95;;;18.50;99.90;;;;;;5075188;28;20482;-77
2022/10/19 00:39:18;;;;;;;12.23;6.43;;;18.40;99.90;;;;;;5075122;28;20021;-75
2022/10/19 00:41:45;;;;;;;16.08;6.80;;;18.40;99.90;;;;;;5075226;28;20048;-75
2022/10/19 00:44:11;;;;;;;15.98;6.43;;;18.40;99.90;;;;;;5075073;28;20024;-76
2022/10/19 00:46:40;;;;;;;14.82;6.60;;;18.40;99.90;;;;;;5057346;28;20498;-78
2022/10/19 00:49:11;;;;;;;16.55;7.00;;;18.50;99.90;;;;;;5074946;28;20021;-75
2022/10/19 00:51:40;;;;;;;15.45;7.28;;;18.40;99.90;;;;;;5075067;28;20063;-76
2022/10/19 00:54:08;;;;;;;15.73;6.68;;;18.40;99.90;;;;;;5056972;28;20020;-74
2022/10/19 00:56:36;;;;;;;12.48;7.10;;;18.40;99.90;;;;;;5056815;28;20394;-76
2022/10/19 00:59:04;;;;;;;18.27;6.85;;;18.30;99.90;;;;;;5074711;28;20024;-76
2022/10/19 01:01:31;;;;;;;13.07;6.82;;;18.40;99.90;;;;;;5074772;28;20025;-75
2022/10/19 01:03:58;;;;;;;14.32;7.25;;;18.40;99.90;;;;;;5074711;28;20029;-75
2022/10/19 01:06:24;;;;;;;12.27;6.57;;;18.40;99.90;;;;;;5074520;28;20060;-76
2022/10/19 01:08:49;;;;;;;14.85;6.32;;;18.30;99.90;;;;;;5074560;28;20048;-77
2022/10/19 01:11:31;;;;;;;12.45;6.78;;;18.40;99.90;;;;;;5074864;28;20059;-77
2022/10/19 01:14:34;;;;;;;16.02;6.95;;;18.40;99.90;;;;;;5074497;28;20020;-77
2022/10/19 01:17:16;;;;;;;13.88;6.78;;;18.40;99.90;;;;;;5073346;28;20021;-76
2022/10/19 01:20:09;;;;;;;14.80;6.90;;;18.30;99.90;;;;;;5074463;28;20036;-76
2022/10/19 01:22:40;;;;;;;16.35;7.15;;;18.30;99.90;;;;;;5056132;28;20020;-77
2022/10/19 01:25:21;;;;;;;13.80;6.35;;;18.20;99.90;;;;;;5074371;28;20078;-75
2022/10/19 01:28:11;;;;;;;12.45;6.47;;;18.10;99.90;;;;;;5074252;28;20028;-77
2022/10/19 01:30:57;;;;;;;15.60;7.20;;;18.20;99.90;;;;;;5074397;28;20565;-75
2022/10/19 01:33:43;;;;;;;13.50;6.57;;;18.20;99.90;;;;;;5074111;28;20062;-76
2022/10/19 01:36:47;;;;;;;13.38;6.13;;;18.10;99.90;;;;;;5060007;28;20037;-76
2022/10/19 01:39:42;;;;;;;12.82;6.07;;;18.10;99.90;;;;;;4992610;28;20030;-76
2022/10/19 01:42:28;;;;;;;12.68;6.50;;;18.20;99.90;;;;;;4992825;28;20093;-77
2022/10/19 01:45:09;;;;;;;18.45;6.90;;;18.30;99.90;;;;;;5058470;28;20033;-76
2022/10/19 01:47:46;;;;;;;11.90;6.22;;;18.30;99.90;;;;;;5073339;28;20044;-75
2022/10/19 01:50:17;;;;;;;13.18;6.80;;;18.30;99.90;;;;;;5073789;28;20025;-76
2022/10/19 01:52:43;;;;;;;12.73;6.47;;;18.20;99.90;;;;;;5073790;28;20082;-76
2022/10/19 01:55:12;;;;;;;16.70;6.97;;;18.20;99.90;;;;;;5073673;28;20017;-75
2022/10/19 01:57:41;;;;;;;13.88;6.68;;;18.10;99.90;;;;;;5073674;28;20028;-75
2022/10/19 02:00:09;;;;;;;11.10;6.32;;;18.10;99.90;;;;;;5073620;28;20024;-76
2022/10/19 02:02:38;;;;;;;12.98;6.72;;;18.10;99.90;;;;;;5073713;28;20028;-76
2022/10/19 02:05:06;;;;;;;11.60;5.95;;;18.00;99.90;;;;;;5073474;28;20020;-75
2022/10/19 02:07:33;;;;;;;14.52;6.35;;;18.10;99.90;;;;;;5073446;28;20103;-76
2022/10/19 02:09:58;;;;;;;13.45;6.43;;;18.00;99.90;;;;;;5073545;28;20493;-75
2022/10/19 02:12:27;;;;;;;12.90;5.90;;;18.00;99.90;;;;;;5073401;28;20025;-75
2022/10/19 02:14:57;;;;;;;14.25;6.00;;;18.00;99.90;;;;;;5073336;28;20019;-75
2022/10/19 02:17:30;;;;;;;14.38;5.80;;;18.10;99.90;;;;;;5073641;28;20024;-74
2022/10/19 02:19:57;;;;;;;13.02;6.32;;;18.00;99.90;;;;;;5073438;28;20367;-75
2022/10/19 02:22:23;;;;;;;11.07;6.03;;;18.00;99.90;;;;;;5073271;28;20031;-75
2022/10/19 02:24:49;;;;;;;13.13;6.40;;;18.00;99.90;;;;;;5073261;28;20023;-75
2022/10/19 02:27:16;;;;;;;14.20;6.15;;;18.00;99.90;;;;;;5072855;28;20074;-74
2022/10/19 02:29:42;;;;;;;12.50;6.55;;;18.00;99.90;;;;;;5073213;28;20016;-75
2022/10/19 02:32:08;;;;;;;15.45;5.90;;;18.00;99.90;;;;;;5073223;28;20074;-77
2022/10/19 02:34:36;;;;;;;13.60;6.15;;;18.00;99.90;;;;;;5073130;28;20027;-76
2022/10/19 02:37:01;;;;;;;16.08;6.22;;;18.00;99.90;;;;;;5073093;28;20032;-76
2022/10/19 02:39:28;;;;;;;17.88;6.40;;;18.00;99.90;;;;;;5073047;28;20027;-77
2022/10/19 02:42:13;;;;;;;16.38;6.05;;;17.90;99.90;;;;;;5073089;28;20475;-75
2022/10/19 02:45:01;;;;;;;17.65;6.55;;;17.90;99.90;;;;;;5054851;28;20520;-75
2022/10/19 02:47:41;;;;;;;15.48;6.38;;;17.90;99.90;;;;;;5072683;28;20568;-75
2022/10/19 02:50:09;;;;;;;12.25;6.15;;;17.90;99.90;;;;;;5055319;28;20055;-75
2022/10/19 02:52:38;;;;;;;13.48;6.68;;;18.00;99.90;;;;;;5073052;28;20099;-77
2022/10/19 02:55:06;;;;;;;11.43;5.72;;;18.20;99.90;;;;;;5073092;28;20021;-76
2022/10/19 02:57:32;;;;;;;14.45;6.15;;;18.10;99.90;;;;;;5072966;28;20020;-76
2022/10/19 02:59:58;;;;;;;11.95;6.32;;;18.10;99.90;;;;;;5072993;28;20029;-78
2022/10/19 03:02:24;;;;;;;13.80;6.30;;;18.10;99.90;;;;;;5072918;28;20017;-77
2022/10/19 03:04:49;;;;;;;12.60;6.15;;;18.00;99.90;;;;;;5072941;28;20502;-77
2022/10/19 03:07:17;;;;;;;;;;;18.00;99.90;;;;;;5073160;28;20390;-76
2022/10/19 03:09:43;;;;;;;17.17;6.53;;;18.00;99.90;;;;;;5072838;28;19905;-76
2022/10/19 03:12:09;;;;;;;12.52;6.50;;;18.00;99.90;;;;;;5073092;28;20055;-77
2022/10/19 03:14:35;;;;;;;12.45;6.78;;;17.90;99.90;;;;;;5072783;28;20021;-74
2022/10/19 03:17:01;;;;;;;13.18;6.25;;;17.90;99.90;;;;;;5072795;28;20193;-76
2022/10/19 03:19:27;;;;;;;13.10;7.05;;;17.90;99.90;;;;;;5054729;28;20028;-75
2022/10/19 03:21:53;;;;;;;11.20;5.97;;;17.90;99.90;;;;;;5072752;28;20029;-75
2022/10/19 03:24:19;;;;;;;12.07;5.75;;;17.90;99.90;;;;;;5072724;28;20419;-77
2022/10/19 03:26:44;;;;;;;10.93;6.43;;;17.90;99.90;;;;;;5072662;28;20028;-75
2022/10/19 03:29:10;;;;;;;12.63;6.35;;;17.90;99.90;;;;;;5072658;28;20020;-75
2022/10/19 03:31:36;;;;;;;13.20;6.20;;;17.90;99.90;;;;;;5072608;28;20104;-78
2022/10/19 03:34:02;;;;;;;12.32;6.25;;;17.80;99.90;;;;;;5072624;28;20017;-77
2022/10/19 03:36:32;;;;;;;12.73;6.38;;;17.80;99.90;;;;;;5072764;28;20046;-77
2022/10/19 03:39:03;;;;;;;12.63;6.43;;;17.80;99.90;;;;;;5073075;28;20074;-75
2022/10/19 03:41:32;;;;;;;15.82;6.20;;;17.80;99.90;;;;;;5076283;28;20535;-74
2022/10/19 03:43:57;;;;;;;16.00;7.05;;;17.80;99.90;;;;;;5076200;28;20020;-74
2022/10/19 03:46:23;;;;;;;11.77;6.30;;;17.70;99.90;;;;;;5076691;28;20051;-75
2022/10/19 03:48:49;;;;;;;12.23;6.15;;;17.70;99.90;;;;;;5076134;28;20482;-76
2022/10/19 03:51:21;;;;;;;13.30;6.57;;;17.70;99.90;;;;;;5076333;28;20016;-76
2022/10/19 03:53:50;;;;;;;11.82;6.20;;;17.70;99.90;;;;;;5076074;28;20028;-77
2022/10/19 03:56:19;;;;;;;18.05;6.50;;;17.80;99.90;;;;;;5075922;28;20099;-77
2022/10/19 03:58:46;;;;;;;14.48;6.30;;;17.80;99.90;;;;;;5076065;28;20108;-74
2022/10/19 04:01:15;;;;;;;11.77;6.20;;;17.70;99.90;;;;;;5075935;28;20024;-75
2022/10/19 04:03:41;;;;;;;14.07;6.45;;;17.70;99.90;;;;;;5075832;28;20079;-75
2022/10/19 04:06:16;;;;;;;14.15;6.45;;;17.70;99.90;;;;;;5057796;28;20048;-76
2022/10/19 04:08:43;;;;;;;14.48;6.68;;;17.70;99.90;;;;;;5076157;28;20456;-74
2022/10/19 04:11:12;;;;;;;12.68;6.53;;;17.60;99.90;;;;;;5075705;28;20021;-77
2022/10/19 04:13:38;;;;;;;17.42;7.25;;;17.70;99.90;;;;;;5075647;28;20024;-75
2022/10/19 04:16:04;;;;;;;15.70;6.90;;;17.70;99.90;;;;;;5057673;28;20508;-78
2022/10/19 04:18:30;;;;;;;12.63;6.45;;;17.70;99.90;;;;;;5075744;28;20048;-74
2022/10/19 04:20:56;;;;;;;13.55;6.90;;;17.70;99.90;;;;;;5075630;28;20052;-74
2022/10/19 04:23:23;;;;;;;14.57;6.78;;;17.70;99.90;;;;;;5075506;28;20603;-74
2022/10/19 04:25:48;;;;;;;13.68;6.97;;;17.60;99.90;;;;;;5075327;28;20046;-74
2022/10/19 04:28:14;;;;;;;11.93;6.70;;;17.60;99.90;;;;;;5075411;28;20043;-75
2022/10/19 04:30:40;;;;;;;15.75;7.00;;;17.60;99.90;;;;;;5075367;28;20028;-74
2022/10/19 04:33:05;;;;;;;13.77;7.00;;;17.70;99.90;;;;;;5075503;28;20024;-75
2022/10/19 04:35:31;;;;;;;20.10;6.78;;;17.60;99.90;;;;;;5075319;28;20098;-76
2022/10/19 04:37:58;;;;;;;12.98;6.95;;;17.60;99.90;;;;;;5075192;28;20027;-74
2022/10/19 04:40:24;;;;;;;13.52;6.55;;;17.60;99.90;;;;;;5075298;28;20398;-74
2022/10/19 04:42:50;;;;;;;13.73;6.80;;;17.70;99.90;;;;;;5074948;28;20059;-75
2022/10/19 04:45:16;;;;;;;12.98;6.57;;;17.70;99.90;;;;;;5075469;28;20503;-74
2022/10/19 04:47:41;;;;;;;15.20;7.03;;;17.60;99.90;;;;;;5074943;28;20036;-75
2022/10/19 04:50:07;;;;;;;;;;;17.60;99.90;;;;;;5075171;28;20074;-75
2022/10/19 04:52:34;;;;;;;14.57;6.53;;;17.60;99.90;;;;;;5075025;28;19905;-76
2022/10/19 04:55:00;;;;;;;10.88;6.32;;;17.50;99.90;;;;;;5074921;28;20024;-74
2022/10/19 04:57:26;;;;;;;16.83;6.97;;;17.50;99.90;;;;;;5074875;28;20095;-75
2022/10/19 04:59:51;;;;;;;12.18;6.45;;;17.50;99.90;;;;;;5074828;28;20024;-76
2022/10/19 05:02:17;;;;;;;14.52;6.25;;;17.40;99.90;;;;;;5074734;28;20027;-76
2022/10/19 05:04:43;;;;;;;12.00;6.30;;;17.40;99.90;;;;;;5074550;28;20040;-75
2022/10/19 05:07:08;;;;;;;15.80;6.47;;;17.40;99.90;;;;;;5074580;28;20031;-74
2022/10/19 05:09:34;;;;;;;13.52;6.40;;;17.40;99.90;;;;;;5074562;28;20025;-75
2022/10/19 05:12:00;;;;;;;;;;;17.40;99.90;;;;;;5075351;28;20026;-76
2022/10/19 05:14:25;;;;;;;19.25;6.03;;;17.30;99.90;;;;;;5074689;28;19904;-74
2022/10/19 05:16:51;;;;;;;13.10;6.43;;;17.30;99.90;;;;;;5074478;28;20024;-74
2022/10/19 05:19:17;;;;;;;14.07;7.05;;;17.30;99.90;;;;;;5074434;28;20020;-75
2022/10/19 05:21:43;;;;;;;;;;;17.30;99.90;;;;;;5056841;28;20024;-76
2022/10/19 05:24:11;;;;;;;12.65;6.50;;;17.20;99.90;;;;;;5074571;28;20025;-76
2022/10/19 05:26:36;;;;;;;14.70;6.32;;;17.20;99.90;;;;;;5056242;28;20078;-76
2022/10/19 05:29:03;;;;;;;12.70;6.22;;;17.20;99.90;;;;;;5056296;28;20474;-76
2022/10/19 05:31:31;;;;;;;16.48;6.80;;;17.20;99.90;;;;;;5074142;28;20021;-75
2022/10/19 05:33:58;;;;;;;14.15;6.30;;;17.30;99.90;;;;;;5074057;28;20082;-74
2022/10/19 05:36:35;;;;;;;12.15;6.35;;;17.20;99.90;;;;;;5074425;28;20126;-74
2022/10/19 05:39:12;;;;;;;17.52;7.03;;;17.20;99.90;;;;;;5074044;28;20037;-74
2022/10/19 05:41:38;;;;;;;15.10;6.60;;;17.20;99.90;;;;;;5074013;28;20107;-76
2022/10/19 05:44:04;;;;;;;13.75;7.43;;;17.20;99.90;;;;;;5074386;28;20104;-76
2022/10/19 05:46:31;;;;;;;18.30;6.38;;;17.30;99.90;;;;;;5045641;28;20036;-74
2022/10/19 05:48:58;;;;;;;17.05;7.20;;;17.20;99.90;;;;;;5053820;28;20090;-75
2022/10/19 05:51:26;;;;;;;15.77;6.85;;;17.10;99.90;;;;;;5053676;28;20479;-76
2022/10/19 05:53:53;;;;;;;15.55;6.80;;;17.10;99.90;;;;;;5053736;28;20482;-74
2022/10/19 05:56:25;;;;;;;14.35;7.00;;;17.10;99.90;;;;;;5053843;28;20074;-75
2022/10/19 05:58:52;;;;;;;17.27;6.72;;;17.10;99.90;;;;;;5053507;28;20033;-76
2022/10/19 06:01:19;;;;;;;20.23;7.35;;;17.10;99.90;;;;;;5053475;28;20028;-75
2022/10/19 06:03:45;;;;;;;17.80;7.40;;;17.00;99.90;;;;;;5053139;28;20033;-75
2022/10/19 06:06:11;;;;;;;19.75;7.60;;;17.00;99.90;;;;;;5053653;28;20031;-75
2022/10/19 06:08:38;;;;;;;14.25;7.40;;;17.00;99.90;;;;;;5053710;28;20025;-75
2022/10/19 06:11:06;;;;;;;13.95;6.85;;;17.00;99.90;;;;;;5053489;28;20017;-75
2022/10/19 06:13:32;;;;;;;17.58;7.55;;;16.90;99.90;;;;;;5053399;28;20078;-75
2022/10/19 06:15:58;;;;;;;14.82;7.13;;;16.90;99.90;;;;;;5053326;28;20028;-75
2022/10/19 06:18:24;;;;;;;;;;;16.90;99.90;;;;;;5053776;28;20096;-74
2022/10/19 06:20:51;;;;;;;13.38;7.55;;;16.80;99.90;;;;;;5053467;28;19912;-74
2022/10/19 06:23:17;;;;;;;16.85;7.28;;;16.90;99.90;;;;;;5053373;28;20456;-75
2022/10/19 06:25:43;;;;;;;13.63;7.00;;;16.90;99.90;;;;;;5053218;28;20403;-75
2022/10/19 06:28:09;;;;;;;13.63;6.95;;;16.90;99.90;;;;;;5035301;28;20032;-74
2022/10/19 06:30:44;;;;;;;11.57;6.95;;;16.80;99.90;;;;;;5053195;28;20390;-76
2022/10/19 06:33:09;;;;;;;19.23;7.23;;;16.90;99.90;;;;;;5053383;28;20372;-75
2022/10/19 06:35:35;;;;;;;13.45;6.97;;;16.80;99.90;;;;;;5053158;28;20028;-76
2022/10/19 06:38:01;;;;;;;12.63;6.72;;;16.80;99.90;;;;;;5053005;28;20060;-75
2022/10/19 06:40:27;;;;;;;18.13;6.80;;;16.90;99.90;;;;;;5053093;28;20387;-74
2022/10/19 06:42:54;;;;;;;;;;;16.80;99.90;;;;;;5053442;28;20021;-75
2022/10/19 06:45:19;;;;;;;15.52;7.22;;;16.80;99.90;;;;;;5053658;28;20374;-76
2022/10/19 06:47:45;;;;;;;16.50;7.65;;;16.80;99.90;;;;;;5073540;28;20028;-76
2022/10/19 06:50:11;;;;;;;13.70;6.65;;;16.80;99.90;;;;;;5073044;28;20024;-74
2022/10/19 06:52:39;;;;;;;14.25;6.80;;;16.90;99.90;;;;;;5072965;28;20017;-74
2022/10/19 06:55:05;;;;;;;15.93;6.93;;;16.90;99.90;;;;;;5072981;28;20024;-75
2022/10/19 06:57:31;;;;;;;14.73;6.82;;;16.90;99.90;;;;;;5072981;28;20020;-76
2022/10/19 06:59:57;;;;;;;12.07;6.72;;;16.90;99.90;;;;;;5072954;28;20397;-75
2022/10/19 07:02:22;;;;;;;16.08;7.10;;;16.90;99.90;;;;;;5072868;28;20025;-75
2022/10/19 07:04:50;;;;;;;16.77;6.82;;;16.90;99.90;;;;;;5072870;28;20078;-76
2022/10/19 07:07:16;;;;;;;12.60;6.22;;;16.90;99.90;;;;;;5072795;28;20048;-74
2022/10/19 07:09:41;;;;;;;13.02;6.95;;;16.90;99.90;;;;;;5072813;28;20032;-76
2022/10/19 07:12:09;;;;;;;16.63;6.95;;;16.90;99.90;;;;;;5072815;28;20390;-74
2022/10/19 07:14:38;;;;;;;16.88;7.13;;;16.90;99.90;;;;;;5075947;28;20059;-74
2022/10/19 07:17:05;;;;;;;14.35;7.10;;;16.90;99.90;;;;;;5076694;28;20024;-74
2022/10/19 07:19:31;;;;;;;12.93;6.70;;;16.90;99.90;;;;;;5058705;28;20064;-75
2022/10/19 07:21:57;;;;;;;16.63;6.53;;;16.90;99.90;;;;;;5077001;28;20055;-76
2022/10/19 07:24:22;;;;;;;;;;;17.00;99.90;;;;;;5077044;28;20039;-76
2022/10/19 07:26:48;;;;;;;16.30;6.78;;;16.90;99.90;;;;;;5058523;28;20366;-75
2022/10/19 07:29:13;;;;;;;;;;;17.00;99.90;;;;;;5076909;28;20496;-75
2022/10/19 07:31:40;;;;;;;17.27;6.72;;;17.00;99.90;;;;;;5076654;28;19950;-74
2022/10/19 07:34:06;;;;;;;13.88;6.38;;;17.00;99.90;;;;;;5076534;28;20108;-75
2022/10/19 07:36:34;;;;;;;13.20;6.15;;;17.10;99.90;;;;;;5076450;28;20028;-78
2022/10/19 07:39:01;;;;;;;12.57;5.90;;;17.10;99.90;;;;;;5076216;28;20107;-76
2022/10/19 07:41:27;;;;;;;13.25;5.90;;;17.20;99.90;;;;;;5058337;28;20028;-77
2022/10/19 07:43:54;;;;;;;12.52;6.25;;;17.20;99.90;;;;;;5076200;28;20032;-77
2022/10/19 07:46:22;;;;;;;14.27;5.72;;;17.30;99.90;;;;;;5076756;28;20040;-76
2022/10/19 07:48:48;;;;;;;14.52;5.20;;;17.40;99.90;;;;;;5076351;28;20028;-77
2022/10/19 07:51:16;;;;;;;17.70;5.80;;;17.70;99.90;;;;;;5058152;28;20448;-74
2022/10/19 07:53:43;;;;;;;13.95;5.25;;;18.00;99.90;;;;;;5075971;28;20020;-76
2022/10/19 07:56:11;;;;;;;16.45;4.88;;;18.30;99.90;;;;;;5076422;28;20016;-75
2022/10/19 07:58:38;;;;;;;15.70;4.22;;;18.60;99.90;;;;;;5075968;28;20025;-76
2022/10/19 08:01:07;;;;;;;16.38;4.75;;;19.00;99.90;;;;;;5057962;28;20082;-76
2022/10/19 08:03:34;;;;;;;13.68;4.45;;;18.90;99.90;;;;;;5075809;28;20077;-75
2022/10/19 08:06:06;;;;;;;13.55;4.53;;;18.70;99.90;;;;;;5075730;28;20021;-74
2022/10/19 08:08:32;;;;;;;11.23;3.80;;;18.70;99.90;;;;;;5076046;28;20470;-75
2022/10/19 08:11:05;;;;;;;13.18;4.15;;;19.30;99.90;;;;;;5075751;28;20024;-76
2022/10/19 08:13:30;;;;;;;10.77;3.80;;;19.90;99.90;;;;;;5057492;28;20214;-76
2022/10/19 08:15:56;;;;;;;14.13;3.90;;;20.70;99.90;;;;;;5075635;28;20020;-77
2022/10/19 08:18:22;;;;;;;11.68;3.67;;;21.20;99.90;;;;;;5075614;28;20024;-77
2022/10/19 08:20:51;;;;;;;9.18;3.47;;;21.60;99.90;;;;;;5075586;28;20040;-78
2022/10/19 08:23:17;;;;;;;10.77;3.50;;;21.90;99.90;;;;;;5075540;28;20096;-76
2022/10/19 08:25:43;;;;;;;9.70;3.60;;;22.30;99.90;;;;;;5074887;28;20091;-75
2022/10/19 08:28:08;;;;;;;11.73;3.47;;;22.50;99.90;;;;;;5075517;28;20035;-78
2022/10/19 08:30:35;;;;;;;12.32;3.90;;;22.80;99.90;;;;;;5075405;28;20012;-75
2022/10/19 08:33:04;;;;;;;14.20;3.33;;;23.00;99.90;;;;;;5075359;28;20024;-76
2022/10/19 08:35:30;;;;;;;13.43;3.40;;;23.30;99.90;;;;;;5075339;28;20020;-76
2022/10/19 08:37:57;;;;;;;12.80;3.30;;;23.90;99.90;;;;;;5075143;28;20048;-75
2022/10/19 08:40:26;;;;;;;11.55;3.50;;;24.20;99.90;;;;;;5075239;28;20028;-75
2022/10/19 08:43:03;;;;;;;10.57;3.25;;;24.70;99.90;;;;;;5075144;28;20533;-77
2022/10/19 08:45:47;;;;;;;11.60;3.45;;;25.20;99.90;;;;;;5075424;28;20028;-76
2022/10/19 08:48:31;;;;;;;10.95;3.60;;;25.50;99.90;;;;;;5075293;28;20028;-74
2022/10/19 08:50:59;;;;;;;14.05;3.53;;;26.00;99.90;;;;;;5075149;28;20017;-75
2022/10/19 08:53:48;;;;;;;11.38;3.38;;;26.30;99.90;;;;;;5074968;28;20032;-75
2022/10/19 08:56:32;;;;;;;12.35;3.55;;;26.20;99.90;;;;;;5075103;28;20024;-75
2022/10/19 08:59:17;;;;;;;11.80;3.53;;;26.50;99.90;;;;;;5075001;28;20021;-75
2022/10/19 09:01:49;;;;;;;;;;;26.50;99.90;;;;;;5075673;28;20024;-74
2022/10/19 09:04:32;;;;;;;11.15;3.42;;;26.70;99.90;;;;;;5075006;28;20086;-74
2022/10/19 09:07:26;;;;;;;12.55;3.42;;;27.10;99.90;;;;;;5074687;28;20032;-74
2022/10/19 09:10:15;;;;;;;9.93;3.30;;;27.60;99.90;;;;;;5056486;28;20025;-76
2022/10/19 09:12:54;;;;;;;11.10;3.22;;;27.30;99.90;;;;;;5074763;28;20152;-75
2022/10/19 09:15:26;;;;;;;12.15;3.38;;;28.10;99.40;;;;;;5075029;28;20539;-76
2022/10/19 09:17:52;;;;;;;12.65;3.28;;;28.40;97.40;;;;;;5074507;28;20028;-76
2022/10/19 09:20:43;;;;;;;10.10;3.17;;;28.40;97.00;;;;;;5074376;28;20543;-75
2022/10/19 09:23:21;;;;;;;13.40;3.50;;;28.00;96.40;;;;;;5047423;28;20036;-75
2022/10/19 09:25:49;;;;;;;11.52;3.95;;;26.40;99.20;;;;;;5074387;28;20367;-75
2022/10/19 09:28:48;;;;;;;11.90;3.13;;;25.60;99.90;;;;;;5074169;28;20024;-74
2022/10/19 09:31:37;;;;;;;14.70;3.58;;;24.80;99.90;;;;;;5074395;28;20047;-75
2022/10/19 09:34:15;;;;;;;16.17;3.63;;;25.10;99.90;;;;;;5073580;28;20035;-74
2022/10/19 09:36:48;;;;;;;13.95;3.47;;;26.30;99.90;;;;;;5073219;28;20052;-74
2022/10/19 09:39:13;;;;;;;16.98;3.13;;;26.10;99.90;;;;;;5074050;28;20401;-76
2022/10/19 09:42:17;;;;;;;13.38;3.42;;;27.10;99.90;;;;;;5074236;28;20111;-75
2022/10/19 09:44:43;;;;;;;11.00;3.17;;;28.50;97.40;;;;;;5073801;28;20020;-76
2022/10/19 09:47:33;;;;;;;13.52;3.58;;;28.60;97.30;;;;;;5073994;28;20063;-73
2022/10/19 09:50:25;;;;;;;12.48;4.18;;;29.40;94.70;;;;;;5073874;28;20028;-76
2022/10/19 09:53:02;;;;;;;12.07;3.67;;;29.40;93.30;;;;;;5052511;28;20032;-76
2022/10/19 09:55:37;;;;;;;12.02;3.65;;;29.70;93.20;;;;;;5073954;28;20393;-75
2022/10/19 09:58:19;;;;;;;13.40;4.05;;;29.60;92.70;;;;;;5073798;28;20040;-77
2022/10/19 10:00:54;;;;;;;14.70;3.80;;;29.80;93.20;;;;;;5073622;28;20029;-78
2022/10/19 10:03:35;;;;;;;12.68;3.88;;;30.50;91.50;;;;;;5074120;28;20025;-75
2022/10/19 10:06:13;;;;;;;13.57;3.97;;;30.80;90.90;;;;;;5055619;28;20110;-77
2022/10/19 10:08:47;;;;;;;11.18;3.85;;;31.50;90.50;;;;;;5073536;28;20078;-77
2022/10/19 10:11:27;;;;;;;13.43;3.60;;;31.40;88.80;;;;;;5055279;28;20178;-76
2022/10/19 10:13:59;;;;;;;13.60;3.65;;;31.40;87.80;;;;;;5073601;28;20039;-78
2022/10/19 10:16:29;;;;;;;11.35;3.92;;;31.40;87.70;;;;;;5055200;28;20021;-75
2022/10/19 10:18:59;;;;;;;13.07;3.83;;;31.70;87.00;;;;;;5073398;28;20032;-76
2022/10/19 10:21:33;;;;;;;15.82;3.90;;;31.70;86.10;;;;;;5056016;28;20363;-75
2022/10/19 10:24:04;;;;;;;9.13;3.70;;;32.20;85.50;;;;;;5055119;28;20036;-77
2022/10/19 10:26:30;;;;;;;10.50;3.50;;;32.00;86.90;;;;;;5073365;28;20107;-75
2022/10/19 10:28:56;;;;;;;11.65;3.60;;;33.30;83.60;;;;;;5073551;28;20017;-74
2022/10/19 10:31:26;;;;;;;13.85;3.40;;;34.40;82.40;;;;;;5073659;28;20020;-76
2022/10/19 10:34:00;;;;;;;13.35;3.90;;;34.50;79.90;;;;;;5073395;28;20103;-76
2022/10/19 10:36:28;;;;;;;15.05;3.83;;;34.50;78.10;;;;;;5073361;28;20514;-75
2022/10/19 10:39:13;;;;;;;11.82;3.40;;;34.30;78.50;;;;;;5073132;28;20024;-77
2022/10/19 10:41:43;;;;;;;12.73;3.20;;;34.80;76.60;;;;;;5073421;28;20017;-75
2022/10/19 10:44:36;;;;;;;12.98;3.65;;;34.40;76.10;;;;;;5073164;28;20035;-75
2022/10/19 10:47:11;;;;;;;16.95;4.45;;;34.70;75.20;;;;;;5055815;28;20056;-75
2022/10/19 10:49:41;;;;;;;9.43;3.17;;;34.40;74.10;;;;;;5073100;28;20103;-75
2022/10/19 10:52:11;;;;;;;13.43;3.55;;;34.50;75.00;;;;;;5073039;28;20013;-75
2022/10/19 10:54:37;;;;;;;14.68;3.80;;;34.90;73.20;;;;;;5073096;28;20029;-75
2022/10/19 10:57:12;;;;;;;11.02;3.50;;;35.70;72.30;;;;;;5072970;28;20032;-76
2022/10/19 10:59:50;;;;;;;12.30;3.83;;;35.90;70.30;;;;;;5072954;28;20024;-76
2022/10/19 11:02:40;;;;;;;12.80;3.88;;;35.20;70.20;;;;;;5073001;28;20029;-75
2022/10/19 11:05:27;;;;;;;12.68;3.47;;;35.10;72.50;;;;;;5073336;28;20039;-76
2022/10/19 11:08:10;;;;;;;14.73;4.18;;;35.50;70.80;;;;;;5072929;28;20029;-74
2022/10/19 11:10:43;;;;;;;;;;;36.50;69.60;;;;;;5073426;28;20020;-76
2022/10/19 11:13:29;;;;;;;11.55;3.80;;;36.40;67.40;;;;;;5073260;28;19908;-75
2022/10/19 11:16:12;;;;;;;11.70;3.83;;;37.30;67.00;;;;;;5072988;28;20021;-76
2022/10/19 11:19:22;;;;;;;14.77;3.63;;;36.20;66.80;;;;;;5072920;28;20023;-74
2022/10/19 11:21:50;;;;;;;13.18;4.00;;;35.90;66.80;;;;;;5072866;28;20020;-76
2022/10/19 11:24:16;;;;;;;13.05;4.05;;;36.40;68.30;;;;;;5072759;28;20029;-76
2022/10/19 11:27:10;;;;;;;13.43;4.03;;;36.50;66.40;;;;;;5072897;28;19908;-78
2022/10/19 11:29:36;;;;;;;13.77;3.90;;;36.60;65.60;;;;;;5072849;28;20520;-75
2022/10/19 11:32:04;;;;;;;13.93;3.95;;;36.30;63.50;;;;;;5072614;28;20033;-77
2022/10/19 11:34:57;;;;;;;15.35;3.80;;;36.10;65.80;;;;;;5072633;28;20024;-78
2022/10/19 11:37:47;;;;;;;12.25;3.60;;;35.50;66.60;;;;;;5072618;28;20497;-75
2022/10/19 11:40:25;;;;;;;17.00;4.00;;;34.80;67.50;;;;;;5071853;28;20375;-75
2022/10/19 11:43:05;;;;;;;14.07;4.00;;;33.50;69.20;;;;;;5072821;28;20060;-75
2022/10/19 11:45:53;;;;;;;16.27;3.72;;;32.90;69.80;;;;;;5072289;28;20094;-77
2022/10/19 11:48:56;;;;;;;14.45;3.65;;;32.30;71.60;;;;;;5073130;28;20078;-76
2022/10/19 11:51:40;;;;;;;13.40;4.15;;;31.40;73.00;;;;;;5005490;28;20056;-76
2022/10/19 11:54:58;;;;;;;15.18;3.88;;;32.70;73.10;;;;;;5072430;28;20028;-77
2022/10/19 11:57:49;;;;;;;13.32;3.92;;;35.10;69.40;;;;;;4995442;28;20410;-76
2022/10/19 12:00:18;;;;;;;12.85;4.03;;;34.50;68.10;;;;;;5073094;28;20032;-75
2022/10/19 12:03:13;;;;;;;19.45;4.53;;;33.30;69.20;;;;;;5076087;28;20024;-76
2022/10/19 12:05:55;;;;;;;13.18;3.88;;;32.70;70.70;;;;;;5064802;28;20486;-75
2022/10/19 12:08:35;;;;;;;18.58;4.30;;;31.60;73.70;;;;;;5075855;28;20031;-75
2022/10/19 12:11:19;;;;;;;17.05;4.35;;;32.00;72.60;;;;;;5076021;28;20477;-74
2022/10/19 12:13:52;;;;;;;16.77;3.90;;;33.30;69.40;;;;;;5075766;28;20021;-76
2022/10/19 12:16:20;;;;;;;15.65;4.10;;;31.70;70.90;;;;;;5057679;28;20495;-74
2022/10/19 12:18:53;;;;;;;14.93;4.10;;;29.60;74.70;;;;;;5075626;28;20021;-75
2022/10/19 12:21:28;;;;;;;14.82;4.53;;;29.40;77.80;;;;;;5075635;28;20021;-76
2022/10/19 12:23:59;;;;;;;13.55;4.10;;;29.30;79.40;;;;;;5057603;28;20112;-75
2022/10/19 12:26:29;;;;;;;14.05;4.47;;;30.50;78.00;;;;;;5075644;28;20501;-75
2022/10/19 12:28:58;;;;;;;12.23;4.38;;;32.50;74.60;;;;;;5075476;28;20020;-75
2022/10/19 12:31:26;;;;;;;12.10;4.10;;;34.40;71.50;;;;;;5075391;28;20062;-75
2022/10/19 12:33:54;;;;;;;14.90;4.25;;;35.00;67.50;;;;;;5075246;28;20570;-76
2022/10/19 12:36:46;;;;;;;14.32;4.00;;;35.50;65.70;;;;;;5057320;28;20040;-76
2022/10/19 12:39:33;;;;;;;14.98;4.18;;;34.00;66.40;;;;;;5075235;28;20027;-76
2022/10/19 12:42:11;;;;;;;20.50;4.72;;;34.20;67.60;;;;;;5075480;28;20028;-74
2022/10/19 12:45:04;;;;;;;15.57;4.40;;;34.20;67.40;;;;;;5075235;28;20023;-74
2022/10/19 12:47:30;;;;;;;15.18;4.50;;;33.40;69.50;;;;;;5044934;28;20402;-76
2022/10/19 12:49:57;;;;;;;15.90;4.20;;;34.10;69.30;;;;;;5054995;28;20106;-76
2022/10/19 12:52:47;;;;;;;14.98;3.83;;;34.40;69.20;;;;;;5055012;28;20122;-75
2022/10/19 12:55:15;;;;;;;17.40;4.10;;;35.00;69.10;;;;;;5054908;28;20025;-77
2022/10/19 12:58:02;;;;;;;14.45;4.03;;;36.70;64.90;;;;;;5054747;28;20047;-76
2022/10/19 13:00:35;;;;;;;15.48;4.50;;;36.60;64.50;;;;;;5055033;28;20021;-75
2022/10/19 13:03:15;;;;;;;13.23;4.30;;;37.50;63.90;;;;;;5054774;28;20029;-75